Time;durP1;ratioP1;P1;durP2;ratioP2;P2;SDS_P1;SDS_P2;PMS_P1;PMS_P2;Temp;Humidity;BMP_temperature;BMP_pressure;BME280_temperature;BME280_humidity;BME280_pressure;Samples;Min_cycle;Max_cycle;Signal;HPM_P1;HPM_P2
2021/12/23 00:01:48;;;;;;;28.65;20.30;;;;;;;-1.47;100.00;101456.38;5073449;28;20067;-50
2021/12/23 00:04:14;;;;;;;29.33;20.50;;;;;;;-1.06;100.00;101522.88;5055266;28;20041;-49
2021/12/23 00:06:41;;;;;;;29.70;20.13;;;;;;;-1.19;100.00;101488.09;5073522;28;20395;-49
2021/12/23 00:09:07;;;;;;;27.00;19.52;;;;;;;-1.11;100.00;101514.13;5073215;28;20037;-49
2021/12/23 00:11:32;;;;;;;25.50;19.75;;;;;;;-1.20;100.00;101519.06;5055127;28;20399;-47
2021/12/23 00:14:03;;;;;;;28.17;19.77;;;;;;;-1.19;100.00;101541.47;5050778;28;20054;-49
2021/12/23 00:16:55;;;;;;;31.30;20.25;;;;;;;-1.21;100.00;101528.53;5072755;28;20036;-49
2021/12/23 00:19:34;;;;;;;29.63;20.13;;;;;;;-1.31;100.00;101504.97;5072204;28;20024;-48
2021/12/23 00:24:44;;;;;;;29.33;20.85;;;;;;;-1.32;100.00;101503.25;5057665;28;20463;-51
2021/12/23 00:27:09;;;;;;;28.20;19.73;;;;;;;-1.38;100.00;101480.72;5055008;28;20056;-48
2021/12/23 00:29:35;;;;;;;27.67;19.80;;;;;;;-1.72;100.00;101414.41;5072864;28;20450;-48
2021/12/23 00:32:04;;;;;;;30.25;21.02;;;;;;;-1.26;100.00;101477.59;5072848;28;20029;-47
2021/12/23 00:34:29;;;;;;;29.00;20.35;;;;;;;-1.37;100.00;101432.53;5072641;28;20040;-48
2021/12/23 00:36:57;;;;;;;33.13;20.02;;;;;;;-1.18;100.00;101455.41;5054837;28;20410;-48
2021/12/23 00:39:22;;;;;;;26.15;19.88;;;;;;;-1.18;100.00;101464.03;5054948;28;20106;-51
2021/12/23 00:41:49;;;;;;;28.15;20.52;;;;;;;-1.45;100.00;101414.25;5072812;28;20028;-50
2021/12/23 00:44:14;;;;;;;23.58;19.67;;;;;;;-1.37;100.00;101399.81;5072656;28;20119;-49
2021/12/23 00:46:40;;;;;;;28.38;20.33;;;;;;;-1.16;100.00;101409.78;5054679;28;20555;-49
2021/12/23 00:49:06;;;;;;;26.73;20.38;;;;;;;-1.34;100.00;101371.50;5054682;28;20082;-48
2021/12/23 00:51:32;;;;;;;30.40;20.80;;;;;;;-0.95;100.00;101424.94;5034325;28;20099;-48
2021/12/23 00:54:04;;;;;;;31.50;21.25;;;;;;;-0.83;100.00;101435.56;5051189;28;20045;-47
2021/12/23 00:56:35;;;;;;;28.27;20.02;;;;;;;-0.81;100.00;101431.28;5052599;28;20124;-49
2021/12/23 00:59:00;;;;;;;25.10;19.17;;;;;;;-0.96;100.00;101400.81;5052545;28;20033;-50
2021/12/23 01:01:26;;;;;;;27.95;21.02;;;;;;;-0.85;100.00;101412.28;5052431;28;20036;-49
2021/12/23 01:03:52;;;;;;;29.67;21.73;;;;;;;-0.96;100.00;101405.13;5051155;28;20025;-48
2021/12/23 01:06:17;;;;;;;26.83;20.65;;;;;;;-1.05;100.00;101399.75;5051050;28;20036;-50
2021/12/23 01:08:43;;;;;;;30.88;21.45;;;;;;;-1.24;100.00;101377.75;5051354;28;20049;-49
2021/12/23 01:11:09;;;;;;;26.67;19.90;;;;;;;-1.13;100.00;101415.03;5051132;28;20444;-49
2021/12/23 01:13:34;;;;;;;27.98;20.30;;;;;;;-1.42;100.00;101375.59;5052386;28;20443;-47
2021/12/23 01:18:38;;;;;;;28.40;21.50;;;;;;;-1.31;100.00;101412.00;5052322;28;20392;-49
2021/12/23 01:21:14;;;;;;;32.95;21.95;;;;;;;-1.28;100.00;101412.97;5052350;28;20071;-47
2021/12/23 01:23:43;;;;;;;29.23;20.38;;;;;;;-1.35;100.00;101415.38;5052128;28;20044;-47
2021/12/23 01:26:08;;;;;;;26.92;20.50;;;;;;;-1.39;100.00;101422.16;5051130;28;20418;-48
2021/12/23 01:28:33;;;;;;;28.30;20.33;;;;;;;-1.83;100.00;101348.75;5052221;28;20037;-52
2021/12/23 01:30:59;;;;;;;35.33;21.58;;;;;;;-1.47;100.00;101407.31;5052115;28;20029;-48
2021/12/23 01:33:24;;;;;;;33.08;22.23;;;;;;;-1.50;100.00;101414.97;5051764;28;20472;-48
2021/12/23 01:35:50;;;;;;;31.35;21.25;;;;;;;-1.53;100.00;101408.03;5052160;28;20048;-49
2021/12/23 01:38:16;;;;;;;36.13;22.98;;;;;;;-1.62;100.00;101399.16;5050966;28;20048;-49
2021/12/23 01:40:44;;;;;;;32.45;22.63;;;;;;;-1.61;100.00;101406.97;5052203;28;20037;-48
2021/12/23 01:43:10;;;;;;;31.95;24.08;;;;;;;-1.65;100.00;101394.81;5051827;28;20040;-49
2021/12/23 01:45:43;;;;;;;35.00;23.80;;;;;;;-1.97;100.00;101336.34;5034122;28;20029;-48
2021/12/23 01:48:08;;;;;;;36.85;24.52;;;;;;;-1.53;100.00;101399.41;5050447;28;20041;-51
2021/12/23 01:50:37;;;;;;;42.03;26.23;;;;;;;-1.66;100.00;101371.56;5060269;28;20060;-49
2021/12/23 01:53:03;;;;;;;39.20;25.83;;;;;;;-1.50;100.00;101399.50;5072003;28;20098;-48
2021/12/23 01:55:29;;;;;;;36.95;26.00;;;;;;;-1.53;100.00;101389.09;5054202;28;20503;-48
2021/12/23 01:57:56;;;;;;;38.08;25.92;;;;;;;-1.91;100.00;101302.97;5054028;28;20074;-49
2021/12/23 02:00:25;;;;;;;39.10;28.02;;;;;;;-1.95;100.00;101289.09;5053844;28;20028;-48
2021/12/23 02:02:52;;;;;;;33.55;25.40;;;;;;;-1.56;100.00;101371.81;5053930;28;20037;-48
2021/12/23 02:05:17;;;;;;;36.72;26.80;;;;;;;-1.96;100.00;101268.44;5071699;28;20035;-49
2021/12/23 02:07:43;;;;;;;45.08;30.67;;;;;;;-1.51;100.00;101335.78;5071605;28;20025;-50
2021/12/23 02:10:09;;;;;;;42.67;30.15;;;;;;;-1.49;100.00;101347.03;5071632;28;20036;-49
2021/12/23 02:12:34;;;;;;;44.03;29.50;;;;;;;-1.43;100.00;101329.94;5071744;28;20115;-49
2021/12/23 02:15:00;;;;;;;46.45;33.03;;;;;;;-1.38;100.00;101322.31;5053675;28;20128;-48
2021/12/23 02:17:25;;;;;;;50.95;34.25;;;;;;;-1.70;100.00;101254.47;5055664;28;20029;-49
2021/12/23 02:19:52;;;;;;;53.25;35.25;;;;;;;-1.39;100.00;101307.66;5057579;28;20033;-50
2021/12/23 02:22:18;;;;;;;56.72;37.72;;;;;;;-1.30;100.00;101311.34;5057564;28;20141;-49
2021/12/23 02:24:43;;;;;;;54.92;35.85;;;;;;;-1.44;100.00;101280.88;5075227;28;20037;-49
2021/12/23 02:27:10;;;;;;;55.03;37.08;;;;;;;-1.53;100.00;101255.72;5075209;28;20582;-49
2021/12/23 02:29:36;;;;;;;56.53;37.78;;;;;;;-1.37;100.00;101265.53;5074849;28;20533;-49
2021/12/23 02:32:01;;;;;;;58.28;38.45;;;;;;;-1.10;100.00;101316.06;5075153;28;20119;-49
2021/12/23 02:34:26;;;;;;;55.47;37.45;;;;;;;-1.05;100.00;101315.31;5057227;28;20039;-51
2021/12/23 02:36:55;;;;;;;58.13;38.83;;;;;;;-1.38;100.00;101261.25;5075089;28;20494;-49
2021/12/23 02:39:21;;;;;;;58.20;39.85;;;;;;;-1.36;100.00;101250.94;5075045;28;20111;-49
2021/12/23 02:41:47;;;;;;;60.45;39.47;;;;;;;-1.10;100.00;101282.47;5074912;28;20502;-49
2021/12/23 02:44:13;;;;;;;62.80;40.88;;;;;;;-1.19;100.00;101270.25;5056642;28;20037;-48
2021/12/23 02:46:39;;;;;;;61.38;40.85;;;;;;;-1.27;100.00;101235.63;5057003;28;20040;-48
2021/12/23 02:49:04;;;;;;;63.58;42.08;;;;;;;-0.87;100.00;101305.41;5056926;28;20472;-48
2021/12/23 02:51:30;;;;;;;61.85;41.17;;;;;;;-0.84;100.00;101296.81;5074493;28;20048;-48
2021/12/23 02:53:55;;;;;;;69.05;43.28;;;;;;;-0.92;100.00;101275.13;5074682;28;20090;-49
2021/12/23 02:56:22;;;;;;;70.07;45.17;;;;;;;-0.89;100.00;101280.38;5075062;28;20040;-50
2021/12/23 02:58:47;;;;;;;70.68;46.00;;;;;;;-0.81;100.00;101287.44;5056539;28;20024;-48
2021/12/23 03:01:14;;;;;;;74.72;46.00;;;;;;;-0.98;100.00;101262.97;5074510;28;20043;-48
2021/12/23 03:03:40;;;;;;;70.10;46.33;;;;;;;-1.23;100.00;101220.25;5056646;28;20032;-52
2021/12/23 03:06:06;;;;;;;72.32;44.00;;;;;;;-0.83;100.00;101283.06;5074612;28;20124;-51
2021/12/23 03:08:33;;;;;;;75.35;46.30;;;;;;;-0.84;100.00;101291.66;5056643;28;20111;-50
2021/12/23 03:10:59;;;;;;;68.95;44.53;;;;;;;-0.84;100.00;101270.97;5074396;28;20478;-49
2021/12/23 03:13:25;;;;;;;73.18;45.95;;;;;;;-0.83;100.00;101272.75;5074214;28;20100;-49
2021/12/23 03:15:50;;;;;;;70.78;44.42;;;;;;;-1.14;100.00;101206.66;5074423;28;20085;-49
2021/12/23 03:18:16;;;;;;;68.10;43.70;;;;;;;-0.82;100.00;101246.06;5074376;28;20040;-49
2021/12/23 03:20:41;;;;;;;73.97;44.53;;;;;;;-0.78;100.00;101234.94;5074173;28;20039;-49
2021/12/23 03:23:06;;;;;;;65.00;41.58;;;;;;;-0.89;100.00;101211.47;5074021;28;20045;-49
2021/12/23 03:25:32;;;;;;;67.00;42.22;;;;;;;-0.84;100.00;101217.59;5073981;28;20047;-49
2021/12/23 03:27:57;;;;;;;71.53;42.63;;;;;;;-0.88;100.00;101228.72;5073229;28;20028;-48
2021/12/23 03:30:23;;;;;;;71.53;43.92;;;;;;;-0.80;100.00;101241.78;5055940;28;20088;-48
2021/12/23 03:32:48;;;;;;;69.25;44.17;;;;;;;-1.14;100.00;101155.00;5074144;28;20059;-49
2021/12/23 03:35:14;;;;;;;66.22;43.60;;;;;;;-0.82;100.00;101213.34;5073991;28;20043;-48
2021/12/23 03:37:39;;;;;;;78.05;43.75;;;;;;;-0.75;100.00;101230.69;5056059;28;20033;-52
2021/12/23 03:40:05;;;;;;;71.65;42.78;;;;;;;-0.77;100.00;101247.91;5039439;28;20033;-49
2021/12/23 03:42:31;;;;;;;72.90;43.70;;;;;;;-1.09;100.00;101205.03;5039059;28;20128;-49
2021/12/23 03:44:56;;;;;;;73.00;42.33;;;;;;;-0.82;100.00;101234.03;5073944;28;20111;-49
2021/12/23 03:47:21;;;;;;;70.25;43.10;;;;;;;-1.03;100.00;101183.63;5039224;28;20043;-51
2021/12/23 03:49:47;;;;;;;69.57;42.85;;;;;;;-0.95;100.00;101195.84;5073345;28;20028;-52
2021/12/23 03:52:12;;;;;;;71.70;41.67;;;;;;;-1.03;100.00;101186.19;5073469;28;20048;-47
2021/12/23 03:54:38;;;;;;;68.95;41.55;;;;;;;-0.79;100.00;101241.81;5073462;28;20144;-49
2021/12/23 03:57:04;;;;;;;77.55;45.00;;;;;;;-0.70;100.00;101254.91;5055339;28;20064;-50
2021/12/23 03:59:29;;;;;;;70.78;43.58;;;;;;;-1.09;100.00;101170.56;5055442;28;20040;-51
2021/12/23 04:01:54;;;;;;;70.68;41.30;;;;;;;-0.96;100.00;101188.91;5073349;28;20530;-54
2021/12/23 04:04:20;;;;;;;78.88;45.33;;;;;;;-0.71;100.00;101258.34;5073099;28;20029;-49
2021/12/23 04:06:45;;;;;;;74.63;43.10;;;;;;;-1.06;100.00;101197.34;5073179;28;20092;-49
2021/12/23 04:09:10;;;;;;;72.35;41.85;;;;;;;-1.00;100.00;101183.69;5073200;28;20123;-48
2021/12/23 04:11:36;;;;;;;78.55;43.60;;;;;;;-0.67;100.00;101269.59;5073039;28;20127;-48
2021/12/23 04:14:01;;;;;;;77.28;44.45;;;;;;;-1.01;100.00;101182.81;5073246;28;20206;-48
2021/12/23 04:16:27;;;;;;;75.28;42.30;;;;;;;-0.76;100.00;101239.28;5055196;28;20020;-50
2021/12/23 04:18:54;;;;;;;81.93;44.38;;;;;;;-0.88;100.00;101196.84;5073102;28;20495;-48
2021/12/23 04:21:19;;;;;;;81.82;46.78;;;;;;;-1.12;100.00;101155.88;5073140;28;20029;-50
2021/12/23 04:23:45;;;;;;;83.85;46.03;;;;;;;-1.07;100.00;101158.56;5054974;28;20037;-49
2021/12/23 04:26:10;;;;;;;81.57;44.78;;;;;;;-0.72;100.00;101223.00;5038415;28;20383;-50
2021/12/23 04:28:47;;;;;;;78.40;45.00;;;;;;;-0.99;100.00;101182.84;5055035;28;20044;-49
2021/12/23 04:31:16;;;;;;;82.93;45.63;;;;;;;-0.97;100.00;101173.41;5072950;28;20124;-50
2021/12/23 04:33:44;;;;;;;79.32;44.15;;;;;;;-0.96;100.00;101194.09;5055345;28;20036;-52
2021/12/23 04:36:09;;;;;;;88.32;46.60;;;;;;;-0.64;100.00;101229.19;5054875;28;20043;-49
2021/12/23 04:38:37;;;;;;;80.50;44.53;;;;;;;-0.71;100.00;101218.72;5072694;28;20044;-48
2021/12/23 04:41:02;;;;;;;83.85;46.15;;;;;;;-1.09;100.00;101137.88;5055043;28;20036;-48
2021/12/23 04:43:28;;;;;;;82.07;44.00;;;;;;;-1.09;100.00;101139.56;5072606;28;20044;-47
2021/12/23 04:45:53;;;;;;;83.60;46.83;;;;;;;-0.90;100.00;101170.06;5072888;28;20161;-48
2021/12/23 04:48:18;;;;;;;80.97;45.78;;;;;;;-1.18;100.00;101122.19;5054583;28;20115;-48
2021/12/23 04:50:44;;;;;;;77.97;42.42;;;;;;;-0.85;100.00;101184.84;5072530;28;20080;-46
2021/12/23 04:53:09;;;;;;;81.32;43.83;;;;;;;-0.83;100.00;101190.91;5054591;28;20058;-50
2021/12/23 04:55:34;;;;;;;86.97;48.45;;;;;;;-0.86;100.00;101188.28;5054579;28;20515;-48
2021/12/23 04:58:00;;;;;;;81.47;44.97;;;;;;;-0.88;100.00;101191.66;5072716;28;20037;-48
2021/12/23 05:00:26;;;;;;;86.85;47.08;;;;;;;-0.97;100.00;101176.88;5054762;28;20041;-48
2021/12/23 05:02:51;;;;;;;91.07;45.50;;;;;;;-0.91;100.00;101181.28;5054339;28;20024;-51
2021/12/23 05:05:17;;;;;;;88.38;47.58;;;;;;;-0.92;100.00;101180.41;5072340;28;20394;-49
2021/12/23 05:07:43;;;;;;;88.97;44.90;;;;;;;-1.24;100.00;101112.63;5072245;28;20033;-50
2021/12/23 05:10:10;;;;;;;92.95;46.83;;;;;;;-1.21;100.00;101120.41;5072129;28;20036;-48
2021/12/23 05:12:42;;;;;;;88.90;46.08;;;;;;;-1.23;100.00;101109.19;5072372;28;20086;-50
2021/12/23 05:15:08;;;;;;;85.22;44.60;;;;;;;-0.83;100.00;101164.19;5072013;28;20490;-51
2021/12/23 05:17:34;;;;;;;84.60;45.33;;;;;;;-0.81;100.00;101147.88;5054332;28;20377;-48
2021/12/23 05:19:59;;;;;;;86.55;48.00;;;;;;;-0.87;100.00;101115.88;5054269;28;20027;-48
2021/12/23 05:22:24;;;;;;;84.70;44.83;;;;;;;-1.03;100.00;101078.56;5072140;28;20511;-51
2021/12/23 05:24:51;;;;;;;85.05;46.28;;;;;;;-0.96;100.00;101072.66;5072393;28;20037;-52
2021/12/23 05:27:16;;;;;;;90.10;45.30;;;;;;;-0.73;100.00;101101.50;5072288;28;20468;-48
2021/12/23 05:29:42;;;;;;;84.38;45.90;;;;;;;-0.60;100.00;101119.81;5072304;28;20032;-49
2021/12/23 05:32:08;;;;;;;85.65;45.20;;;;;;;-0.57;100.00;101114.72;5072252;28;20185;-51
2021/12/23 05:34:33;;;;;;;84.78;45.75;;;;;;;-0.76;100.00;101083.34;5072016;28;20036;-49
2021/12/23 05:36:58;;;;;;;82.78;44.63;;;;;;;-0.44;100.00;101120.09;5072065;28;20074;-49
2021/12/23 05:39:24;;;;;;;81.45;44.08;;;;;;;-0.41;100.00;101122.72;5072071;28;20039;-50
2021/12/23 05:41:49;;;;;;;82.10;42.63;;;;;;;-0.40;100.00;101111.50;5071981;28;20107;-52
2021/12/23 05:44:14;;;;;;;78.55;42.78;;;;;;;-0.69;100.00;101059.31;5072234;28;20036;-50
2021/12/23 05:46:40;;;;;;;82.82;42.63;;;;;;;-0.39;100.00;101113.25;5072100;28;20028;-51
2021/12/23 05:49:06;;;;;;;82.22;43.15;;;;;;;-0.72;100.00;101049.81;5072017;28;20035;-47
2021/12/23 05:51:31;;;;;;;75.85;41.85;;;;;;;-0.78;100.00;101039.38;5054210;28;20048;-50
2021/12/23 05:53:57;;;;;;;75.38;41.25;;;;;;;-0.30;100.00;101132.41;5076006;28;20037;-48
2021/12/23 05:56:22;;;;;;;78.65;40.65;;;;;;;-0.30;100.00;101128.94;5057994;28;20032;-50
2021/12/23 05:58:48;;;;;;;73.82;42.58;;;;;;;-0.71;100.00;101051.56;5075801;28;20535;-49
2021/12/23 06:01:13;;;;;;;77.28;42.03;;;;;;;-0.29;100.00;101134.13;5075611;28;20078;-49
2021/12/23 06:03:40;;;;;;;78.20;42.88;;;;;;;-0.25;100.00;101124.69;5075567;28;20064;-49
2021/12/23 06:06:05;;;;;;;75.50;40.75;;;;;;;-0.71;100.00;101033.47;5041450;28;20106;-49
2021/12/23 06:08:31;;;;;;;73.32;39.88;;;;;;;-0.63;100.00;101037.03;5075382;28;20468;-50
2021/12/23 06:10:56;;;;;;;77.40;43.08;;;;;;;-0.60;100.00;101043.97;5057799;28;20077;-48
2021/12/23 06:13:21;;;;;;;75.72;41.72;;;;;;;-0.21;100.00;101095.44;5075624;28;20115;-49
2021/12/23 06:15:47;;;;;;;74.78;40.78;;;;;;;-0.19;100.00;101097.22;5075452;28;20119;-49
2021/12/23 06:18:12;;;;;;;80.22;42.47;;;;;;;-0.15;100.00;101111.06;5075318;28;20032;-50
2021/12/23 06:20:37;;;;;;;80.15;42.78;;;;;;;-0.17;100.00;101129.13;5074185;28;20029;-50
2021/12/23 06:23:05;;;;;;;73.65;41.40;;;;;;;-0.40;100.00;101070.13;5073813;28;20044;-52
2021/12/23 06:25:31;;;;;;;73.60;40.10;;;;;;;-0.42;100.00;101064.94;5075233;28;20407;-49
2021/12/23 06:27:56;;;;;;;79.63;41.88;;;;;;;-0.12;100.00;101105.94;5057510;28;20028;-51
2021/12/23 06:30:21;;;;;;;74.07;40.08;;;;;;;-0.11;100.00;101112.84;5075367;28;20475;-49
2021/12/23 06:32:51;;;;;;;78.00;41.25;;;;;;;-0.42;100.00;101049.44;5075181;28;20064;-48
2021/12/23 06:35:17;;;;;;;75.72;41.42;;;;;;;-0.33;100.00;101051.28;5075229;28;20464;-50
2021/12/23 06:37:43;;;;;;;76.93;40.95;;;;;;;-0.06;100.00;101087.91;5057192;28;20085;-50
2021/12/23 06:40:08;;;;;;;75.07;40.72;;;;;;;-0.44;100.00;101017.53;5057311;28;20376;-48
2021/12/23 06:42:34;;;;;;;74.28;41.38;;;;;;;-0.44;100.00;101014.94;5074962;28;20464;-50
2021/12/23 06:44:59;;;;;;;70.65;39.60;;;;;;;-0.37;100.00;101013.28;5075142;28;20119;-50
2021/12/23 06:47:24;;;;;;;70.68;40.67;;;;;;;0.00;100.00;101062.97;5074792;28;20044;-48
2021/12/23 06:49:50;;;;;;;74.70;41.17;;;;;;;0.01;100.00;101040.56;5074214;28;20040;-49
2021/12/23 06:52:15;;;;;;;71.95;39.38;;;;;;;-0.08;100.00;101027.50;5074434;28;20036;-49
2021/12/23 06:54:46;;;;;;;73.95;40.47;;;;;;;0.00;100.00;101051.78;5074527;28;20047;-47
2021/12/23 06:57:11;;;;;;;68.88;37.72;;;;;;;-0.09;100.00;101043.88;5057004;28;20032;-49
2021/12/23 06:59:36;;;;;;;68.65;37.92;;;;;;;-0.34;100.00;101000.41;5039792;28;20033;-48
2021/12/23 07:02:02;;;;;;;76.25;40.90;;;;;;;-0.23;100.00;101006.59;5074314;28;20440;-49
2021/12/23 07:04:31;;;;;;;75.40;40.38;;;;;;;0.09;100.00;101079.50;5074173;28;20107;-48
2021/12/23 07:07:08;;;;;;;68.40;39.55;;;;;;;0.09;100.00;101069.16;5074393;28;20128;-48
2021/12/23 07:09:33;;;;;;;68.97;37.70;;;;;;;-0.03;100.00;101042.22;5074378;28;20033;-51
2021/12/23 07:11:59;;;;;;;65.60;37.63;;;;;;;0.07;100.00;101066.53;5056038;28;20039;-48
2021/12/23 07:14:24;;;;;;;72.43;38.42;;;;;;;0.10;100.00;101084.69;5074114;28;20032;-48
2021/12/23 07:16:49;;;;;;;73.28;39.40;;;;;;;0.13;100.00;101081.25;5056340;28;20582;-49
2021/12/23 07:19:15;;;;;;;68.18;36.85;;;;;;;-0.55;100.00;100964.75;5073998;28;20036;-49
2021/12/23 07:21:40;;;;;;;77.13;38.75;;;;;;;0.13;100.00;101094.22;5055704;28;20070;-53
2021/12/23 07:24:06;;;;;;;69.90;38.50;;;;;;;-0.05;100.00;101054.28;5074051;28;20586;-49
2021/12/23 07:26:32;;;;;;;68.07;37.88;;;;;;;0.05;100.00;101059.59;5073140;28;20036;-49
2021/12/23 07:28:57;;;;;;;72.97;37.13;;;;;;;0.18;100.00;101087.38;5073005;28;20052;-50
2021/12/23 07:31:23;;;;;;;68.07;38.47;;;;;;;0.09;100.00;101058.81;5073920;28;20067;-51
2021/12/23 07:33:48;;;;;;;73.88;38.55;;;;;;;0.21;100.00;101077.06;5073702;28;20395;-52
2021/12/23 07:36:16;;;;;;;70.32;37.97;;;;;;;0.20;100.00;101075.34;5073739;28;20024;-48
2021/12/23 07:38:42;;;;;;;74.38;38.70;;;;;;;-0.17;100.00;100991.16;5073897;28;20031;-52
2021/12/23 07:41:07;;;;;;;69.18;38.47;;;;;;;0.03;100.00;101000.03;5073828;28;20034;-50
2021/12/23 07:46:01;;;;;;;69.93;37.95;;;;;;;0.10;100.00;101003.56;5056131;28;20127;-48
2021/12/23 07:48:27;;;;;;;69.57;37.42;;;;;;;0.22;100.00;101025.31;5071806;28;20549;-53
2021/12/23 07:50:54;;;;;;;64.82;36.95;;;;;;;0.18;100.00;101036.47;5069458;28;20507;-49
2021/12/23 07:53:19;;;;;;;68.57;37.15;;;;;;;0.14;100.00;101020.91;5072380;28;20025;-48
2021/12/23 07:55:45;;;;;;;70.70;38.35;;;;;;;0.26;100.00;101042.63;5054488;28;20037;-48
2021/12/23 07:58:10;;;;;;;66.22;35.17;;;;;;;0.25;100.00;101038.28;5073090;28;20029;-48
2021/12/23 08:00:36;;;;;;;68.20;37.13;;;;;;;0.24;100.00;101033.97;5073318;28;20032;-50
2021/12/23 08:03:02;;;;;;;67.53;39.05;;;;;;;0.34;100.00;101038.41;5055327;28;20035;-47
2021/12/23 08:05:28;;;;;;;68.93;39.65;;;;;;;0.36;100.00;101047.06;5055683;28;20037;-49
2021/12/23 08:07:56;;;;;;;66.18;36.22;;;;;;;0.37;100.00;101020.31;5055597;28;20033;-48
2021/12/23 08:10:21;;;;;;;67.03;36.95;;;;;;;0.38;100.00;101022.03;5073143;28;20028;-51
2021/12/23 08:12:47;;;;;;;73.38;39.10;;;;;;;0.22;100.00;100994.25;5073522;28;20036;-49
2021/12/23 08:15:12;;;;;;;66.28;37.05;;;;;;;0.25;100.00;100989.13;5054567;28;20036;-51
2021/12/23 08:17:39;;;;;;;75.15;37.95;;;;;;;0.07;100.00;100950.06;5072951;28;20037;-51
2021/12/23 08:20:05;;;;;;;60.42;34.47;;;;;;;0.43;100.00;101010.03;5073150;28;20033;-52
2021/12/23 08:22:31;;;;;;;66.07;37.38;;;;;;;0.50;100.00;100998.88;5073088;28;20098;-50
2021/12/23 08:24:56;;;;;;;70.55;36.88;;;;;;;0.53;100.00;100998.03;5072946;28;20036;-48
2021/12/23 08:27:25;;;;;;;62.55;36.53;;;;;;;0.55;100.00;100999.78;5072794;28;20070;-49
2021/12/23 08:29:51;;;;;;;66.53;36.80;;;;;;;0.60;100.00;100986.03;5052940;28;20503;-50
2021/12/23 08:32:16;;;;;;;59.13;33.80;;;;;;;0.18;100.00;100898.41;5072118;28;20068;-53
2021/12/23 08:34:41;;;;;;;63.40;36.15;;;;;;;0.26;100.00;100901.97;5072194;28;20045;-51
2021/12/23 08:37:11;;;;;;;64.65;34.35;;;;;;;0.68;100.00;100971.41;5054576;28;20071;-53
2021/12/23 08:39:39;;;;;;;65.43;35.05;;;;;;;0.72;100.00;100970.59;5072639;28;20210;-53
2021/12/23 08:42:05;;;;;;;63.53;36.28;;;;;;;0.73;100.00;100962.00;5054352;28;20075;-49
2021/12/23 08:44:31;;;;;;;66.93;37.78;;;;;;;0.45;100.00;100903.88;5072135;28;20064;-48
2021/12/23 08:46:56;;;;;;;64.97;36.60;;;;;;;0.79;100.00;100954.28;5072263;28;20024;-49
2021/12/23 08:49:21;;;;;;;63.90;35.55;;;;;;;0.77;100.00;100936.13;5072368;28;20029;-48
2021/12/23 08:51:47;;;;;;;67.30;36.75;;;;;;;0.84;100.00;100944.81;5072227;28;20037;-51
2021/12/23 08:54:12;;;;;;;63.80;36.05;;;;;;;0.74;100.00;100922.25;5072454;28;20059;-50
2021/12/23 08:56:39;;;;;;;58.92;34.75;;;;;;;0.46;100.00;100869.34;5072495;28;20124;-50
2021/12/23 08:59:05;;;;;;;61.40;35.47;;;;;;;0.94;100.00;100959.56;5054325;28;20056;-50
2021/12/23 09:01:30;;;;;;;61.33;33.55;;;;;;;0.94;100.00;100944.03;5072715;28;20044;-49
2021/12/23 09:03:55;;;;;;;63.30;35.67;;;;;;;0.94;100.00;100916.38;5054345;28;20154;-49
2021/12/23 09:06:21;;;;;;;61.22;34.05;;;;;;;0.70;100.00;100872.13;5067395;28;20067;-47
2021/12/23 09:08:46;;;;;;;63.78;35.47;;;;;;;0.74;100.00;100876.50;5071423;28;20043;-52
2021/12/23 09:11:12;;;;;;;63.05;34.28;;;;;;;1.06;100.00;100913.00;5071643;28;20028;-51
2021/12/23 09:13:37;;;;;;;63.42;35.90;;;;;;;1.04;100.00;100913.03;5071859;28;20040;-50
2021/12/23 09:16:03;;;;;;;61.70;34.47;;;;;;;0.86;100.00;100870.53;5072394;28;20433;-51
2021/12/23 09:18:28;;;;;;;61.15;35.03;;;;;;;1.13;100.00;100912.22;5054126;28;20044;-49
2021/12/23 09:20:55;;;;;;;63.90;35.92;;;;;;;0.90;100.00;100854.16;5072128;28;20028;-53
2021/12/23 09:23:21;;;;;;;62.20;36.10;;;;;;;0.98;100.00;100852.50;5072061;28;20059;-52
2021/12/23 09:25:47;;;;;;;61.45;34.88;;;;;;;1.27;100.00;100912.28;5072147;28;20025;-51
2021/12/23 09:33:41;;;;;;;57.53;35.70;;;;;;;1.41;100.00;100882.13;5061376;28;20407;-49
2021/12/23 09:36:07;;;;;;;56.10;32.95;;;;;;;1.09;100.00;100832.69;5076044;28;20047;-49
2021/12/23 09:38:33;;;;;;;57.83;32.88;;;;;;;1.14;100.00;100825.78;5076060;28;20032;-52
2021/12/23 09:41:04;;;;;;;57.72;34.40;;;;;;;1.49;100.00;100876.09;5076087;28;20512;-52
2021/12/23 09:43:31;;;;;;;62.97;34.30;;;;;;;1.46;100.00;100890.81;5058089;28;20037;-49
2021/12/23 09:45:57;;;;;;;51.10;33.53;;;;;;;1.53;100.00;100901.22;5058060;28;20036;-51
2021/12/23 09:48:22;;;;;;;54.95;33.75;;;;;;;1.63;100.00;100887.41;5058269;28;20078;-52
2021/12/23 09:50:49;;;;;;;56.42;33.75;;;;;;;1.65;100.00;100875.34;5075578;28;20052;-50
2021/12/23 09:53:16;;;;;;;56.53;32.42;;;;;;;1.73;100.00;100875.34;5075591;28;20033;-50
2021/12/23 09:55:42;;;;;;;58.25;33.42;;;;;;;1.53;100.00;100845.88;5053362;28;20514;-49
2021/12/23 09:58:07;;;;;;;52.78;33.28;;;;;;;1.76;100.00;100877.97;5057768;28;20024;-52
2021/12/23 10:00:38;;;;;;;52.10;31.80;;;;;;;1.54;100.00;100837.25;5075559;28;20036;-51
2021/12/23 10:03:05;;;;;;;49.92;30.40;;;;;;;1.84;100.00;100885.78;5075505;28;20028;-51
2021/12/23 10:05:32;;;;;;;54.45;31.77;;;;;;;1.57;100.00;100824.28;5073848;28;20387;-50
2021/12/23 10:07:58;;;;;;;52.35;31.52;;;;;;;1.78;100.00;100857.22;5057372;28;20036;-49
2021/12/23 10:10:36;;;;;;;50.42;31.95;;;;;;;1.82;100.00;100859.81;5075586;28;20028;-53
2021/12/23 10:38:20;;;;;;;49.00;29.77;;;;;;;1.94;100.00;100805.34;5040485;28;20047;-50
2021/12/23 10:40:50;;;;;;;52.50;29.65;;;;;;;2.20;100.00;100839.13;5075018;28;20101;-51
2021/12/23 10:43:26;;;;;;;51.78;31.73;;;;;;;2.34;100.00;100858.19;5074658;28;20028;-50
2021/12/23 10:45:56;;;;;;;48.53;30.30;;;;;;;2.05;100.00;100790.66;5074621;28;20043;-51
2021/12/23 10:48:28;;;;;;;48.25;31.05;;;;;;;2.35;100.00;100846.09;5057063;28;20029;-51
2021/12/23 10:51:02;;;;;;;51.92;29.55;;;;;;;2.14;100.00;100806.25;5074694;28;20174;-49
2021/12/23 10:53:48;;;;;;;50.55;31.02;;;;;;;2.49;100.00;100850.44;5074833;28;20039;-49
2021/12/23 10:59:17;;;;;;;47.15;28.38;;;;;;;2.63;100.00;100861.69;5074830;28;20036;-53
2021/12/23 11:02:12;;;;;;;47.05;28.30;;;;;;;2.65;100.00;100851.31;5056683;28;20051;-47
2021/12/23 11:04:50;;;;;;;47.88;28.90;;;;;;;2.73;100.00;100842.63;5074727;28;20086;-49
2021/12/23 11:07:23;;;;;;;47.42;29.00;;;;;;;2.71;100.00;100831.38;5074573;28;20484;-50
2021/12/23 11:10:00;;;;;;;50.95;29.05;;;;;;;2.86;100.00;100835.66;5074641;28;20039;-48
2021/12/23 11:35:44;;;;;;;;;;;;;;;3.26;100.00;100774.91;5074588;28;20048;-48
2021/12/23 11:37:56;;;;;;;44.15;28.63;;;;;;;3.36;100.00;100775.72;5058906;28;20090;-53
2021/12/23 11:43:23;;;;;;;45.28;28.25;;;;;;;3.04;100.00;100683.97;5073774;28;20036;-50
2021/12/23 11:45:49;;;;;;;41.72;28.48;;;;;;;3.04;100.00;100668.34;5060230;28;20051;-47
2021/12/23 11:48:16;;;;;;;43.50;27.00;;;;;;;3.08;100.00;100670.97;5056368;28;20396;-49
2021/12/23 11:50:54;;;;;;;43.42;28.85;;;;;;;3.39;100.00;100713.28;5054787;28;20075;-51
2021/12/23 11:53:21;;;;;;;41.28;26.60;;;;;;;3.39;100.00;100703.72;5057528;28;20036;-48
2021/12/23 11:55:48;;;;;;;44.58;27.70;;;;;;;3.10;100.00;100639.72;5073899;28;20032;-50
2021/12/23 11:58:14;;;;;;;41.65;28.35;;;;;;;3.41;100.00;100691.56;5073504;28;20391;-51
2021/12/23 12:00:43;;;;;;;43.90;30.17;;;;;;;3.46;100.00;100688.97;5055405;28;20060;-49
2021/12/23 12:03:10;;;;;;;39.78;27.75;;;;;;;3.48;100.00;100692.41;5071401;28;20076;-50
2021/12/23 12:05:37;;;;;;;41.95;27.77;;;;;;;3.50;100.00;100693.28;5071602;28;20039;-50
2021/12/23 12:08:16;;;;;;;48.45;32.58;;;;;;;3.11;100.00;100621.53;5053992;28;20082;-51
2021/12/23 12:10:43;;;;;;;46.08;28.77;;;;;;;3.45;100.00;100692.44;5072370;28;20028;-53